createdAt,value
2023-02-03T00:02:26.124Z,78.05
2023-02-03T00:05:01.975Z,78.23
2023-02-03T00:07:37.945Z,78.35
2023-02-03T00:10:12.679Z,78.39
2023-02-03T00:12:46.818Z,78.28
2023-02-03T00:15:23.241Z,78.47
2023-02-03T00:17:57.592Z,78.25
2023-02-03T00:20:33.690Z,78.34
2023-02-03T00:23:08.975Z,78.23
2023-02-03T00:25:43.376Z,78.17
2023-02-03T00:28:17.555Z,78.30
2023-02-03T00:30:54.172Z,78.58
2023-02-03T00:33:28.390Z,78.47
2023-02-03T00:36:08.092Z,78.54
2023-02-03T00:38:43.128Z,79.06
2023-02-03T00:41:17.845Z,79.16
2023-02-03T00:43:52.006Z,79.11
2023-02-03T00:46:26.404Z,79.47
2023-02-03T00:49:00.487Z,79.50
2023-02-03T00:51:37.223Z,79.64
2023-02-03T00:54:11.470Z,79.39
2023-02-03T00:56:46.108Z,79.21
2023-02-03T00:59:20.233Z,79.50
2023-02-03T01:01:54.724Z,79.74
2023-02-03T01:04:29.254Z,79.55
2023-02-03T01:07:05.089Z,79.62
2023-02-03T01:09:39.896Z,79.81
2023-02-03T01:12:14.369Z,79.61
2023-02-03T01:14:48.608Z,79.72
2023-02-03T01:17:23.626Z,80.22
2023-02-03T01:19:58.918Z,80.41
2023-02-03T01:22:36.217Z,80.54
2023-02-03T01:25:10.705Z,80.33
2023-02-03T01:27:45.203Z,80.45
2023-02-03T01:30:20.074Z,80.26
2023-02-03T01:32:54.625Z,80.62
2023-02-03T01:35:28.856Z,80.59
2023-02-03T01:38:04.765Z,80.31
2023-02-03T01:40:44.150Z,80.17
2023-02-03T01:43:31.256Z,80.73
2023-02-03T01:46:32.780Z,80.91
2023-02-03T01:49:12.726Z,80.60
2023-02-03T01:51:48.089Z,80.45
2023-02-03T01:54:31.777Z,80.21
2023-02-03T01:57:12.029Z,80.66
2023-02-03T01:59:48.021Z,80.92
2023-02-03T02:02:22.700Z,81.29
2023-02-03T02:05:04.215Z,80.89
2023-02-03T02:07:38.962Z,81.32
2023-02-03T02:10:15.299Z,80.78
2023-02-03T02:12:49.697Z,80.55
2023-02-03T02:15:26.818Z,80.47
2023-02-03T02:18:37.882Z,80.74
2023-02-03T02:22:00.435Z,80.36
2023-02-03T02:25:21.488Z,80.67
2023-02-03T02:28:10.724Z,80.66
2023-02-03T02:31:08.319Z,80.58
2023-02-03T02:33:51.339Z,80.70
2023-02-03T02:36:31.619Z,80.08
2023-02-03T02:39:13.254Z,80.19
2023-02-03T02:41:53.407Z,80.32
2023-02-03T02:44:32.311Z,80.41
2023-02-03T02:47:17.807Z,80.43
2023-02-03T02:50:00.690Z,80.44
2023-02-03T02:52:38.507Z,80.43
2023-02-03T02:55:20.209Z,80.16
2023-02-03T02:57:58.529Z,80.39
2023-02-03T03:00:36.979Z,79.94
2023-02-03T03:03:15.856Z,80.24
2023-02-03T03:05:55.817Z,79.60
2023-02-03T03:08:37.743Z,80.08
2023-02-03T03:11:12.374Z,79.50
2023-02-03T03:13:52.063Z,79.29
2023-02-03T03:16:29.075Z,78.89
2023-02-03T03:19:08.217Z,78.84
2023-02-03T03:21:47.904Z,78.72
2023-02-03T03:24:26.864Z,78.25
2023-02-03T03:27:06.375Z,78.40
2023-02-03T03:29:45.031Z,78.17
2023-02-03T03:32:19.490Z,77.90
2023-02-03T03:34:54.100Z,77.24
2023-02-03T03:37:36.866Z,77.17
2023-02-03T03:40:14.987Z,77.15
2023-02-03T03:43:13.728Z,78.02
2023-02-03T07:03:29.300Z,78.47
2023-02-03T07:06:04.466Z,78.49
2023-02-03T07:08:38.746Z,79.68
2023-02-03T07:11:13.306Z,80.68
2023-02-03T07:13:47.496Z,82.03
2023-02-03T07:16:22.410Z,81.60
2023-02-03T07:18:58.545Z,81.39
2023-02-03T07:21:33.185Z,80.96
2023-02-03T07:24:07.646Z,80.84
2023-02-03T07:26:42.153Z,100.00
2023-02-03T07:29:16.363Z,100.00
2023-02-03T07:31:50.993Z,78.83
2023-02-03T07:34:26.999Z,77.15
2023-02-03T07:37:01.459Z,75.46
2023-02-03T07:39:35.727Z,75.90
2023-02-03T07:42:10.372Z,77.49
2023-02-03T07:44:44.906Z,77.96
2023-02-03T07:47:19.339Z,79.07
2023-02-03T07:49:55.007Z,79.87
2023-02-03T07:52:29.592Z,80.81
2023-02-03T07:55:04.339Z,81.17
2023-02-03T07:57:43.468Z,81.96
2023-02-03T08:00:18.877Z,82.48
2023-02-03T08:02:53.553Z,83.42
2023-02-03T08:05:30.331Z,84.49
2023-02-03T08:08:05.046Z,85.43
2023-02-03T08:10:39.410Z,86.37
2023-02-03T08:13:13.884Z,87.53
2023-02-03T08:15:48.789Z,88.77
2023-02-03T08:18:23.770Z,89.96
2023-02-03T08:20:59.431Z,90.92
2023-02-03T08:23:34.046Z,100.00
2023-02-03T08:26:08.281Z,100.00
2023-02-03T08:28:42.925Z,88.93
2023-02-03T08:31:17.761Z,93.66
2023-02-03T08:33:52.392Z,100.00
2023-02-03T08:36:28.103Z,89.15
2023-02-03T08:39:02.699Z,89.97
2023-02-03T08:41:36.970Z,91.07
2023-02-03T08:44:12.212Z,91.65
2023-02-03T08:46:46.784Z,92.21
2023-02-03T08:49:22.085Z,92.33
2023-02-03T08:51:59.645Z,92.62
2023-02-03T08:54:34.307Z,93.53
2023-02-03T08:57:09.369Z,93.62
2023-02-03T08:59:45.779Z,93.91
2023-02-03T09:02:21.065Z,94.66
2023-02-03T09:04:55.569Z,94.75
2023-02-03T09:07:31.259Z,95.18
2023-02-03T09:10:06.649Z,95.32
2023-02-03T09:12:40.920Z,95.67
2023-02-03T09:15:15.632Z,95.83
2023-02-03T09:17:49.869Z,96.10
2023-02-03T09:20:26.545Z,100.00
2023-02-03T09:23:02.760Z,100.00
2023-02-03T09:25:37.563Z,100.00
2023-02-03T09:28:12.041Z,88.98
2023-02-03T09:30:47.773Z,88.51
2023-02-03T09:33:22.065Z,89.41
2023-02-03T09:35:58.172Z,90.48
2023-02-03T09:38:35.066Z,91.13
2023-02-03T09:41:20.444Z,92.51
2023-02-03T09:44:00.851Z,93.19
2023-02-03T09:46:40.017Z,93.59
2023-02-03T09:49:19.095Z,94.14
2023-02-03T09:51:59.330Z,94.87
2023-02-03T09:54:43.615Z,95.16
2023-02-03T09:57:22.850Z,94.96
2023-02-03T09:59:59.491Z,94.88
2023-02-03T10:02:47.795Z,95.38
2023-02-03T10:05:31.946Z,95.60
2023-02-03T10:08:15.667Z,95.07
2023-02-03T10:11:10.631Z,95.28
2023-02-03T10:13:54.916Z,95.12
2023-02-03T10:17:05.579Z,95.19
2023-02-03T10:19:47.897Z,95.55
2023-02-03T10:22:28.224Z,95.51
2023-02-03T10:25:08.276Z,96.08
2023-02-03T10:27:45.528Z,96.10
2023-02-03T10:30:22.292Z,95.95
2023-02-03T10:32:58.895Z,95.46
2023-02-03T10:35:41.649Z,100.00
2023-02-03T10:38:26.641Z,100.00
2023-02-03T10:41:01.179Z,99.39
2023-02-03T10:43:51.902Z,96.01
2023-02-03T10:46:30.703Z,93.46
2023-02-03T10:49:05.336Z,94.39
2023-02-03T10:51:44.372Z,94.32
2023-02-03T10:54:29.556Z,94.89
2023-02-03T10:57:07.369Z,95.00
2023-02-03T10:59:46.487Z,94.88
2023-02-03T11:02:26.576Z,95.11
2023-02-03T11:05:13.471Z,96.05
2023-02-03T11:07:50.687Z,96.27
2023-02-03T11:10:36.994Z,97.54
2023-02-03T11:13:19.519Z,96.35
2023-02-03T11:16:11.988Z,97.18
2023-02-03T11:18:53.380Z,97.21
2023-02-03T11:21:31.288Z,97.40
2023-02-03T11:24:11.243Z,97.74
2023-02-03T11:26:49.711Z,97.21
2023-02-03T11:29:28.444Z,97.15
2023-02-03T11:32:08.252Z,100.00
2023-02-03T11:34:49.312Z,100.00
2023-02-03T11:37:33.314Z,100.00
2023-02-03T11:40:25.596Z,98.26
2023-02-03T11:43:06.929Z,96.91
2023-02-03T11:45:43.206Z,96.37
2023-02-03T11:48:29.283Z,97.44
2023-02-03T11:51:13.410Z,97.67
2023-02-03T11:54:02.051Z,97.89
2023-02-03T11:56:56.991Z,98.96
2023-02-03T11:59:56.662Z,98.91
2023-02-03T12:02:56.837Z,99.11
2023-02-03T12:06:01.910Z,98.77
2023-02-03T12:08:54.309Z,98.81
2023-02-03T12:11:40.812Z,100.00
2023-02-03T12:14:30.202Z,100.00
2023-02-03T12:17:34.970Z,99.50
2023-02-03T12:20:36.396Z,98.37
2023-02-03T12:23:26.861Z,98.09
2023-02-03T12:26:11.475Z,97.63
2023-02-03T12:28:56.756Z,97.64
2023-02-03T12:31:38.017Z,98.62
2023-02-03T12:34:18.805Z,98.77
2023-02-03T12:36:59.498Z,98.46
2023-02-03T12:39:43.254Z,98.25
2023-02-03T12:42:22.137Z,98.02
2023-02-03T12:45:02.472Z,97.11
2023-02-03T12:47:44.473Z,97.16
2023-02-03T12:50:23.132Z,97.97
2023-02-03T12:53:05.283Z,98.41
2023-02-03T12:55:45.276Z,97.93
2023-02-03T12:58:25.719Z,97.30
2023-02-03T13:01:07.094Z,97.27
2023-02-03T13:03:47.708Z,97.08
2023-02-03T13:06:31.045Z,96.32
2023-02-03T13:09:16.240Z,95.28
2023-02-03T13:12:00.352Z,94.98
2023-02-03T13:14:38.617Z,93.89
2023-02-03T13:17:19.476Z,92.14
2023-02-03T13:19:57.443Z,91.11
2023-02-03T13:22:32.237Z,91.09
2023-02-03T13:25:16.896Z,91.11
2023-02-03T13:28:00.842Z,90.92
2023-02-03T13:30:51.343Z,90.86
2023-02-03T13:34:05.025Z,90.73
2023-02-03T13:37:03.679Z,90.02
2023-02-03T13:39:52.759Z,89.88
2023-02-03T13:42:29.806Z,89.66
2023-02-03T13:45:14.070Z,89.96
2023-02-03T13:47:50.303Z,90.10
2023-02-03T13:50:28.714Z,90.56
2023-02-03T13:53:07.293Z,89.87
2023-02-03T13:55:47.457Z,90.24
2023-02-03T13:58:25.403Z,90.83
2023-02-03T14:01:30.274Z,90.80
2023-02-03T14:04:06.518Z,90.60
2023-02-03T14:07:03.169Z,90.89
2023-02-03T14:09:42.136Z,90.72
2023-02-03T14:12:56.050Z,91.31
2023-02-03T14:15:36.650Z,91.28
2023-02-03T14:18:44.880Z,92.29
2023-02-03T14:21:22.127Z,91.95
2023-02-03T14:24:03.743Z,92.14
2023-02-03T14:26:42.612Z,91.46
2023-02-03T14:29:27.767Z,91.39
2023-02-03T14:32:04.424Z,91.19
2023-02-03T14:34:42.349Z,91.69
2023-02-03T14:37:21.116Z,91.94
2023-02-03T14:40:13.244Z,91.94
2023-02-03T14:43:10.087Z,92.45
2023-02-03T14:46:16.879Z,92.66
2023-02-03T14:49:07.947Z,93.36
2023-02-03T14:51:57.705Z,93.71
2023-02-03T14:54:52.941Z,94.26
2023-02-03T14:57:40.665Z,94.20
2023-02-03T15:13:41.287Z,93.53
2023-02-03T15:16:20.606Z,93.53
2023-02-03T15:18:57.946Z,93.19
2023-02-03T15:21:32.530Z,94.10
2023-02-03T15:24:15.620Z,94.13
2023-02-03T15:26:52.452Z,95.24
2023-02-03T15:29:31.231Z,96.12
2023-02-03T15:32:11.739Z,96.49
2023-02-03T15:34:49.086Z,96.11
2023-02-03T15:37:29.327Z,96.73
2023-02-03T15:40:07.772Z,96.63
2023-02-03T15:42:56.449Z,97.07
2023-02-03T15:45:35.955Z,96.95
2023-02-03T15:48:19.546Z,96.04
2023-02-03T15:50:59.393Z,96.51
2023-02-03T15:53:47.129Z,96.31
2023-02-03T15:56:27.583Z,97.30
2023-02-03T15:59:03.177Z,97.11
2023-02-03T16:01:41.266Z,96.74
2023-02-03T16:04:16.855Z,96.93
2023-02-03T16:06:53.733Z,97.43
2023-02-03T16:09:31.784Z,97.35
2023-02-03T16:12:15.863Z,97.22
2023-02-03T16:14:51.298Z,97.69
2023-02-03T16:17:32.537Z,97.62
2023-02-03T16:20:23.493Z,97.99
2023-02-03T16:23:07.590Z,97.28
2023-02-03T16:25:42.170Z,97.86
2023-02-03T16:28:36.817Z,97.39
2023-02-03T16:31:34.395Z,96.28
2023-02-03T16:34:33.742Z,96.57
2023-02-03T16:37:31.236Z,96.52
2023-02-03T16:40:23.747Z,100.00
2023-02-03T16:43:16.051Z,97.06
2023-02-03T16:46:14.425Z,96.13
2023-02-03T16:49:06.652Z,96.77
2023-02-03T16:51:44.675Z,97.11
2023-02-03T16:54:19.331Z,97.49
2023-02-03T16:56:53.613Z,97.60
2023-02-03T16:59:28.214Z,98.47
2023-02-03T17:02:02.965Z,98.75
2023-02-03T17:04:37.552Z,98.72
2023-02-03T17:07:13.243Z,98.97
2023-02-03T17:09:48.063Z,99.37
2023-02-03T17:12:22.265Z,99.52
2023-02-03T17:14:58.551Z,99.49
2023-02-03T17:17:32.919Z,99.90
2023-02-03T17:20:08.742Z,100.00
2023-02-03T17:22:44.900Z,100.00
2023-02-03T17:25:19.623Z,100.00
2023-02-03T17:27:54.175Z,100.00
2023-02-03T17:30:29.563Z,100.00
2023-02-03T17:33:11.887Z,100.00
2023-02-03T17:35:46.991Z,100.00
2023-02-03T17:38:22.731Z,100.00
2023-02-03T17:55:22.892Z,100.00
2023-02-03T17:57:58.141Z,100.00
2023-02-03T18:00:32.785Z,100.00
2023-02-03T18:03:07.668Z,100.00
2023-02-03T18:05:51.257Z,100.00
2023-02-03T18:08:25.824Z,100.00
2023-02-03T18:11:03.164Z,100.00
2023-02-03T18:13:40.874Z,100.00
2023-02-03T18:16:17.781Z,100.00
2023-02-03T18:18:54.342Z,100.00
2023-02-03T18:21:29.669Z,100.00
2023-02-03T18:24:05.902Z,100.00
2023-02-03T18:26:49.402Z,100.00
2023-02-03T18:29:26.298Z,100.00
2023-02-03T18:32:00.955Z,100.00
2023-02-03T18:34:35.827Z,100.00
2023-02-03T18:37:10.340Z,100.00
2023-02-03T18:39:45.323Z,100.00
2023-02-03T18:42:21.824Z,100.00
2023-02-03T18:44:56.373Z,99.81
2023-02-03T18:47:33.162Z,99.64
2023-02-03T18:50:08.331Z,100.00
2023-02-03T18:52:42.634Z,100.00
2023-02-03T18:55:18.433Z,100.00
2023-02-03T18:57:54.135Z,98.36
2023-02-03T19:00:29.406Z,98.46
2023-02-03T19:03:04.327Z,98.48
2023-02-03T19:05:41.667Z,98.54
2023-02-03T19:08:16.406Z,97.90
2023-02-03T19:10:52.990Z,97.83
2023-02-03T19:13:29.218Z,97.57
2023-02-03T19:16:04.434Z,97.69
2023-02-03T19:18:39.227Z,97.64
2023-02-03T19:21:15.089Z,97.58
2023-02-03T19:23:50.371Z,97.31
2023-02-03T19:26:25.222Z,97.60
2023-02-03T19:29:01.273Z,97.77
2023-02-03T19:31:36.815Z,97.84
2023-02-03T19:34:15.164Z,97.70
2023-02-03T19:36:52.727Z,97.86
2023-02-03T19:39:27.564Z,97.67
2023-02-03T19:42:02.648Z,97.74
2023-02-03T19:44:38.651Z,97.42
2023-02-03T19:47:13.641Z,93.13
2023-02-03T19:49:48.440Z,88.25
2023-02-03T19:52:23.991Z,86.07
2023-02-03T19:54:58.834Z,84.63
2023-02-03T19:57:34.085Z,85.08
2023-02-03T20:00:11.714Z,84.74
2023-02-03T20:02:48.025Z,84.39
2023-02-03T20:05:23.172Z,84.80
2023-02-03T20:07:57.539Z,83.71
2023-02-03T20:10:33.231Z,82.63
2023-02-03T20:13:08.014Z,82.92
2023-02-03T20:15:46.968Z,80.87
2023-02-03T20:18:22.175Z,80.15
2023-02-03T20:20:58.227Z,79.60
2023-02-03T20:23:32.819Z,78.77
2023-02-03T20:26:07.854Z,77.79
2023-02-03T20:28:42.582Z,78.07
2023-02-03T20:31:19.119Z,79.05
2023-02-03T20:33:54.010Z,80.05
2023-02-03T20:36:28.972Z,82.14
2023-02-03T20:39:05.968Z,83.49
2023-02-03T20:41:40.786Z,85.03
2023-02-03T20:44:15.461Z,91.46
2023-02-03T20:46:53.024Z,85.47
2023-02-03T20:49:27.893Z,85.73
2023-02-03T20:52:03.743Z,85.92
2023-02-03T20:54:38.420Z,86.41
2023-02-03T20:57:15.383Z,84.31
2023-02-03T20:59:49.932Z,83.36
2023-02-03T21:02:34.188Z,82.19
2023-02-03T21:05:24.271Z,82.34
2023-02-03T21:07:59.319Z,81.22
2023-02-03T21:10:34.384Z,81.03
2023-02-03T21:13:20.793Z,81.14
2023-02-03T21:15:57.054Z,80.96
2023-02-03T21:18:40.640Z,79.99
2023-02-03T21:21:17.470Z,80.13
2023-02-03T21:23:54.004Z,80.05
2023-02-03T21:26:35.781Z,79.91
2023-02-03T21:29:21.577Z,79.96
2023-02-03T21:31:59.499Z,78.75
2023-02-03T21:34:37.730Z,79.01
2023-02-03T21:37:36.752Z,78.88
2023-02-03T21:40:26.971Z,79.87
2023-02-03T21:43:03.389Z,80.95
2023-02-03T21:45:42.274Z,81.61
2023-02-03T21:48:38.431Z,81.76
2023-02-03T21:51:20.622Z,81.58
2023-02-03T21:53:57.533Z,82.18
2023-02-03T21:56:39.940Z,81.95
2023-02-03T21:59:17.966Z,81.71
2023-02-03T22:01:53.208Z,81.10
2023-02-03T22:04:29.341Z,80.71
2023-02-03T22:07:16.206Z,80.40
2023-02-03T22:09:51.665Z,80.38
2023-02-03T22:12:25.946Z,80.50
2023-02-03T22:15:00.929Z,85.74
2023-02-03T22:17:35.195Z,87.60
2023-02-03T22:20:10.829Z,79.28
2023-02-03T22:22:46.924Z,78.97
2023-02-03T22:25:21.866Z,79.94
2023-02-03T22:27:58.458Z,79.90
2023-02-03T22:30:33.844Z,79.68
2023-02-03T22:33:08.993Z,79.96
2023-02-03T22:35:43.552Z,80.01
2023-02-03T22:38:19.561Z,79.94
2023-02-03T22:40:54.741Z,79.66
2023-02-03T22:43:31.002Z,79.44
2023-02-03T22:46:06.941Z,79.31
2023-02-03T22:48:44.173Z,79.82
2023-02-03T22:51:18.725Z,79.49
2023-02-03T22:53:54.334Z,79.74
2023-02-03T22:56:28.912Z,79.81
2023-02-03T22:59:03.364Z,79.65
2023-02-03T23:03:20.246Z,78.42
2023-02-03T23:05:56.586Z,78.42
2023-02-03T23:08:30.832Z,79.94
2023-02-03T23:11:05.592Z,79.23
2023-02-03T23:13:39.742Z,79.68
2023-02-03T23:16:14.973Z,79.58
2023-02-03T23:18:50.702Z,79.96
2023-02-03T23:21:25.845Z,80.11
2023-02-03T23:24:00.233Z,80.16
2023-02-03T23:26:34.761Z,80.35
2023-02-03T23:29:09.040Z,81.44
2023-02-03T23:31:43.684Z,82.46
2023-02-03T23:34:37.135Z,83.04
2023-02-03T23:37:11.685Z,83.58
2023-02-03T23:39:46.102Z,84.02
2023-02-03T23:42:21.803Z,84.48
2023-02-03T23:44:56.086Z,84.75
2023-02-03T23:47:30.710Z,84.77
2023-02-03T23:50:07.124Z,85.35
2023-02-03T23:52:41.745Z,85.63
2023-02-03T23:55:17.587Z,85.79
2023-02-03T23:57:52.300Z,85.91
